Time;durP1;ratioP1;P1;durP2;ratioP2;P2;SDS_P1;SDS_P2;PMS_P1;PMS_P2;Temp;Humidity;BMP_temperature;BMP_pressure;BME280_temperature;BME280_humidity;BME280_pressure;Samples;Min_cycle;Max_cycle;Signal;HPM_P1;HPM_P2
2023/01/18 00:00:58;;;;;;;4.20;3.13;;;1.20;99.90;;;0.14;100.00;99315.00;4152213;28;20053;-77
2023/01/18 00:03:00;;;;;;;5.97;3.65;;;1.20;99.90;;;0.11;100.00;99309.25;4153212;28;20026;-78
2023/01/18 00:05:01;;;;;;;5.50;3.05;;;1.20;99.90;;;0.21;100.00;99305.75;4152499;28;20053;-77
2023/01/18 00:07:01;;;;;;;8.07;2.90;;;1.30;99.90;;;0.30;100.00;99306.81;4158065;28;20041;-77
2023/01/18 00:09:02;;;;;;;6.60;2.70;;;1.30;99.90;;;0.23;100.00;99296.09;4156994;28;20033;-77
2023/01/18 00:11:05;;;;;;;7.72;3.10;;;1.40;99.90;;;0.10;100.00;99292.84;4134565;28;20050;-77
2023/01/18 00:13:06;;;;;;;8.57;3.40;;;1.30;99.90;;;0.03;100.00;99293.50;4151313;28;20050;-77
2023/01/18 00:15:08;;;;;;;6.82;3.35;;;1.20;99.90;;;0.07;100.00;99297.47;4151180;28;20018;-77
2023/01/18 00:17:09;;;;;;;6.15;3.67;;;1.20;99.90;;;0.02;100.00;99303.03;4159100;28;20026;-77
2023/01/18 00:32:40;;;;;;;4.72;2.85;;;1.00;99.90;;;-0.29;100.00;99304.69;4155400;28;20040;-77
2023/01/18 00:34:41;;;;;;;9.30;3.90;;;1.00;99.90;;;-0.38;100.00;99305.41;4154912;28;20037;-77
2023/01/18 00:36:42;;;;;;;4.15;2.47;;;0.90;99.90;;;-0.37;100.00;99299.28;4155096;28;20022;-77
2023/01/18 00:38:50;;;;;;;6.32;3.20;;;0.80;99.90;;;-0.41;100.00;99308.25;4154855;28;20092;-77
2023/01/18 00:40:51;;;;;;;6.35;2.90;;;0.80;99.90;;;-0.40;100.00;99302.13;4154103;28;20029;-77
2023/01/18 00:45:12;;;;;;;10.70;4.10;;;0.70;99.90;;;-0.52;100.00;99310.03;4155049;28;20517;-77
2023/01/18 00:47:13;;;;;;;5.90;2.42;;;0.70;99.90;;;-0.51;100.00;99307.34;4158462;28;20029;-77
2023/01/18 00:49:14;;;;;;;4.75;2.50;;;0.60;99.90;;;-0.58;100.00;99293.22;4155387;28;20022;-77
2023/01/18 00:51:21;;;;;;;6.00;3.30;;;0.60;99.90;;;-0.59;100.00;99295.00;4137489;28;20034;-77
2023/01/18 00:53:22;;;;;;;3.90;2.63;;;0.60;99.90;;;-0.63;100.00;99298.75;4153614;28;20516;-77
2023/01/18 00:55:23;;;;;;;7.00;2.60;;;0.60;99.90;;;-0.59;100.00;99314.88;4154012;28;20034;-77
2023/01/18 00:57:24;;;;;;;8.18;2.80;;;0.60;99.90;;;-0.65;100.00;99310.19;4161939;28;20109;-77
2023/01/18 00:59:25;;;;;;;6.20;2.63;;;0.50;99.90;;;-0.57;100.00;99320.78;4153599;28;20030;-77
2023/01/18 01:01:26;;;;;;;7.35;3.25;;;0.50;99.90;;;-0.53;100.00;99316.16;4154706;28;20415;-78
2023/01/18 01:26:53;;;;;;;9.60;4.78;;;0.50;99.90;;;-0.71;100.00;99352.06;4162639;28;20408;-77
2023/01/18 01:28:54;;;;;;;10.07;4.10;;;0.50;99.90;;;-0.80;100.00;99352.78;4155562;28;20022;-77
2023/01/18 01:31:02;;;;;;;6.22;3.00;;;0.50;99.90;;;-0.75;100.00;99358.47;4152702;28;20036;-77
2023/01/18 01:33:03;;;;;;;7.60;3.63;;;0.40;99.90;;;-0.74;100.00;99360.09;4153323;28;20025;-77
2023/01/18 01:35:04;;;;;;;5.80;2.67;;;0.50;99.90;;;-0.76;100.00;99370.56;4154390;28;20026;-78
2023/01/18 01:37:05;;;;;;;8.05;3.30;;;0.40;99.90;;;-0.74;100.00;99370.44;4163572;28;20369;-78
2023/01/18 01:39:09;;;;;;;6.20;2.72;;;0.40;99.90;;;-0.65;100.00;99374.91;4136528;28;20071;-78
2023/01/18 01:41:27;;;;;;;7.70;3.15;;;0.50;99.90;;;-0.64;100.00;99368.78;4137092;28;20024;-78
2023/01/18 01:43:51;;;;;;;6.43;3.00;;;0.50;99.90;;;-0.65;100.00;99380.09;4152956;28;20551;-77
2023/01/18 01:45:51;;;;;;;7.85;3.60;;;0.50;99.90;;;-0.67;100.00;99393.16;4152999;28;20030;-78
2023/01/18 01:47:56;;;;;;;5.70;2.97;;;0.50;99.90;;;-0.55;100.00;99388.81;4136662;28;20563;-78
2023/01/18 01:50:03;;;;;;;5.65;3.33;;;0.60;99.90;;;-0.62;100.00;99390.22;4134375;28;20019;-77
2023/01/18 01:52:09;;;;;;;5.90;3.38;;;0.60;99.90;;;-0.56;100.00;99387.16;4136669;28;20042;-77
2023/01/18 01:54:36;;;;;;;6.78;3.25;;;0.60;99.90;;;-0.62;100.00;99380.69;4152841;28;20030;-77
2023/01/18 01:56:38;;;;;;;8.50;3.80;;;0.60;99.90;;;-0.71;100.00;99375.38;4157210;28;20157;-77
2023/01/18 01:58:40;;;;;;;6.38;3.10;;;0.60;99.90;;;-0.65;100.00;99386.09;4152845;28;20033;-77
2023/01/18 02:00:42;;;;;;;9.50;3.50;;;0.60;99.90;;;-0.61;100.00;99392.69;4136476;28;20030;-77
2023/01/18 02:02:49;;;;;;;8.20;4.35;;;0.60;99.90;;;-0.61;100.00;99384.09;4152676;28;20036;-78
2023/01/18 02:04:52;;;;;;;8.02;3.65;;;0.60;99.90;;;-0.62;100.00;99387.63;4155172;28;20022;-77
2023/01/18 02:06:53;;;;;;;4.95;3.15;;;0.60;99.90;;;-0.58;100.00;99404.56;4138825;28;20069;-77
2023/01/18 02:08:54;;;;;;;7.68;3.33;;;0.60;99.90;;;-0.57;100.00;99398.47;4136143;28;20035;-77
2023/01/18 02:10:55;;;;;;;5.88;2.90;;;0.60;99.90;;;-0.64;100.00;99386.91;4153626;28;20037;-77
2023/01/18 02:12:58;;;;;;;8.93;3.13;;;0.60;99.90;;;-0.65;100.00;99386.09;4152599;28;20080;-77
2023/01/18 02:14:59;;;;;;;12.63;3.85;;;0.60;99.90;;;-0.69;100.00;99376.91;4152663;28;20029;-77
2023/01/18 02:17:20;;;;;;;10.75;3.40;;;0.60;99.90;;;-0.62;100.00;99403.16;4152366;28;20029;-77
2023/01/18 02:19:49;;;;;;;5.75;2.38;;;0.60;99.90;;;-0.65;100.00;99408.56;4152574;28;20069;-77
2023/01/18 02:22:31;;;;;;;3.95;2.70;;;0.60;99.90;;;-0.62;100.00;99410.91;4153577;28;20068;-77
2023/01/18 02:25:06;;;;;;;4.18;2.60;;;0.60;99.90;;;-0.57;100.00;99411.41;4092615;29;20043;-77
2023/01/18 02:27:24;;;;;;;9.23;2.80;;;0.60;99.90;;;-0.64;100.00;99399.88;4167604;28;20033;-77
2023/01/18 02:29:43;;;;;;;4.05;2.60;;;0.60;99.90;;;-0.54;100.00;99412.94;4141774;28;20069;-77
2023/01/18 02:32:36;;;;;;;5.80;2.22;;;0.60;99.90;;;-0.63;100.00;99412.69;4153502;28;20109;-77
2023/01/18 02:34:50;;;;;;;3.38;2.30;;;0.60;99.90;;;-0.69;100.00;99402.00;4153399;28;20033;-78
2023/01/18 02:37:21;;;;;;;3.72;2.35;;;0.50;99.90;;;-0.77;100.00;99401.75;4160489;28;20030;-78
2023/01/18 02:39:40;;;;;;;4.32;2.45;;;0.50;99.90;;;-0.79;100.00;99425.16;4137543;28;20122;-78
2023/01/18 02:46:30;;;;;;;5.55;2.28;;;0.40;99.90;;;-0.90;100.00;99430.34;4152160;28;19916;-78
2023/01/18 02:48:43;;;;;;;6.85;2.35;;;0.30;99.90;;;-0.94;100.00;99434.09;4138971;28;20071;-77
2023/01/18 02:50:44;;;;;;;11.10;3.40;;;0.30;99.90;;;-0.88;100.00;99436.22;4152082;28;20026;-78
2023/01/18 02:52:46;;;;;;;11.30;3.80;;;0.30;99.90;;;-0.85;100.00;99441.16;4153111;28;20037;-77
2023/01/18 02:54:47;;;;;;;8.50;4.07;;;0.30;99.90;;;-0.95;100.00;99436.78;4151604;28;20509;-77
2023/01/18 02:56:52;;;;;;;7.75;3.75;;;0.30;99.90;;;-0.95;100.00;99445.38;4155192;28;20084;-77
2023/01/18 02:59:38;;;;;;;8.80;3.42;;;0.30;99.90;;;-0.92;100.00;99449.50;4152013;28;20040;-77
2023/01/18 03:01:54;;;;;;;7.70;3.88;;;0.20;99.90;;;-0.91;100.00;99451.16;4153130;28;20457;-78
2023/01/18 03:04:09;;;;;;;8.82;3.47;;;0.20;99.90;;;-0.93;100.00;99451.28;4151815;28;20105;-78
2023/01/18 03:06:09;;;;;;;8.68;2.92;;;0.30;99.90;;;-0.82;100.00;99455.63;4152792;28;20033;-77
2023/01/18 03:08:20;;;;;;;5.85;3.30;;;0.30;99.90;;;-0.79;100.00;99452.81;4153214;28;20037;-77
2023/01/18 03:10:27;;;;;;;9.13;2.60;;;0.40;99.90;;;-0.69;100.00;99462.34;4151804;28;20033;-77
2023/01/18 03:12:47;;;;;;;6.13;2.60;;;0.40;99.90;;;-0.66;100.00;99458.72;4151724;28;20112;-77
2023/01/18 03:15:27;;;;;;;5.43;2.33;;;0.50;99.90;;;-0.56;100.00;99450.13;4151808;28;20033;-77
2023/01/18 03:17:43;;;;;;;3.72;2.20;;;0.60;99.90;;;-0.57;100.00;99470.97;4163503;28;20190;-77
2023/01/18 03:20:06;;;;;;;6.30;2.50;;;0.60;99.90;;;-0.53;100.00;99471.53;4152739;28;20041;-77
2023/01/18 03:22:07;;;;;;;4.10;2.25;;;0.60;99.90;;;-0.49;100.00;99473.81;4137953;28;20081;-77
2023/01/18 03:24:10;;;;;;;6.10;2.30;;;0.70;99.90;;;-0.47;100.00;99468.50;4137091;28;20030;-77
2023/01/18 03:26:16;;;;;;;3.38;2.40;;;0.70;99.90;;;-0.46;100.00;99473.56;4165080;28;20497;-77
2023/01/18 03:35:42;;;;;;;5.80;2.10;;;0.70;99.90;;;-0.40;100.00;99477.44;4152017;28;20172;-77
2023/01/18 03:37:46;;;;;;;7.03;1.85;;;0.80;99.90;;;-0.32;100.00;99496.63;4151306;28;20438;-77
2023/01/18 03:39:59;;;;;;;4.82;2.10;;;0.80;99.90;;;-0.26;100.00;99500.53;4135029;28;20055;-77
2023/01/18 03:42:12;;;;;;;6.15;2.03;;;0.90;99.90;;;-0.24;100.00;99501.25;4151175;28;20108;-77
2023/01/18 03:44:38;;;;;;;3.03;1.95;;;0.90;99.90;;;-0.24;100.00;99504.63;4151165;28;20041;-77
2023/01/18 03:46:42;;;;;;;8.18;1.73;;;0.90;99.90;;;-0.21;100.00;99509.59;4157104;28;20458;-77
2023/01/18 03:48:43;;;;;;;6.38;2.00;;;1.00;99.90;;;-0.23;100.00;99511.47;4138535;28;20590;-77
2023/01/18 03:51:05;;;;;;;3.13;1.77;;;1.00;99.90;;;-0.19;100.00;99523.25;4151259;28;20034;-77
2023/01/18 03:53:14;;;;;;;3.88;2.15;;;1.00;99.90;;;-0.08;100.00;99532.78;4151495;28;20436;-77
2023/01/18 03:55:33;;;;;;;5.10;2.42;;;1.10;99.90;;;-0.13;100.00;99530.56;4138477;28;20064;-77
2023/01/18 03:57:52;;;;;;;3.58;1.80;;;1.10;99.90;;;-0.02;100.00;99527.13;4155279;28;20517;-77
2023/01/18 03:59:53;;;;;;;3.38;1.58;;;1.20;99.90;;;0.00;100.00;99533.84;4152333;28;20038;-77
2023/01/18 04:01:53;;;;;;;6.75;2.45;;;1.20;99.90;;;0.09;100.00;99532.31;4151440;28;20026;-77
2023/01/18 04:03:54;;;;;;;3.53;1.83;;;1.20;99.90;;;0.12;100.00;99531.25;4134755;28;20038;-77
2023/01/18 04:05:57;;;;;;;2.97;1.60;;;1.30;99.90;;;0.17;100.00;99534.31;4152348;28;20096;-77
2023/01/18 04:07:58;;;;;;;5.13;2.15;;;1.30;99.90;;;0.27;100.00;99540.44;4152220;28;20110;-77
2023/01/18 04:09:59;;;;;;;4.95;1.83;;;1.40;99.90;;;0.25;100.00;99540.53;4152199;28;20148;-78
2023/01/18 04:12:00;;;;;;;4.90;1.98;;;1.40;99.90;;;0.30;100.00;99535.00;4151274;28;20026;-77
2023/01/18 04:14:01;;;;;;;6.35;1.88;;;1.50;99.90;;;0.46;100.00;99549.22;4152228;28;20037;-77
2023/01/18 04:16:03;;;;;;;4.07;2.08;;;1.60;99.90;;;0.45;100.00;99539.78;4152249;28;20103;-77
2023/01/18 04:18:05;;;;;;;6.03;1.63;;;1.60;99.90;;;0.58;100.00;99555.22;4162698;28;20061;-77
2023/01/18 04:20:07;;;;;;;3.70;1.75;;;1.70;99.90;;;0.61;100.00;99549.78;4134574;28;20055;-78
2023/01/18 04:22:08;;;;;;;4.22;1.70;;;1.80;99.90;;;0.62;100.00;99548.84;4152424;28;20030;-77
2023/01/18 04:24:10;;;;;;;4.43;2.60;;;1.90;99.90;;;0.64;100.00;99551.31;4151512;28;20041;-77
2023/01/18 04:26:14;;;;;;;4.60;1.35;;;1.90;99.90;;;0.66;100.00;99558.03;4152377;28;20127;-77
2023/01/18 04:28:16;;;;;;;4.28;1.60;;;1.90;99.90;;;0.82;100.00;99558.44;4158801;28;20073;-77
2023/01/18 04:30:17;;;;;;;5.43;1.95;;;2.00;99.90;;;0.82;100.00;99555.84;4134613;28;20062;-77
2023/01/18 04:32:18;;;;;;;2.78;1.52;;;2.00;99.90;;;0.98;100.00;99558.88;4150829;28;20504;-77
2023/01/18 04:34:21;;;;;;;5.13;1.00;;;2.10;99.90;;;1.02;100.00;99570.63;4150918;28;20030;-77
2023/01/18 04:36:21;;;;;;;5.00;1.23;;;2.20;99.90;;;1.13;100.00;99583.56;4150859;28;20037;-77
2023/01/18 04:38:22;;;;;;;2.95;1.23;;;2.20;99.90;;;1.20;100.00;99583.91;4150620;28;20033;-77
2023/01/18 04:40:23;;;;;;;7.15;1.15;;;2.30;99.90;;;1.23;100.00;99573.25;4151748;28;20501;-77
2023/01/18 04:42:25;;;;;;;2.85;1.30;;;2.40;99.90;;;1.20;100.00;99573.50;4151063;28;20485;-77
2023/01/18 04:44:26;;;;;;;3.67;0.90;;;2.40;99.90;;;1.29;100.00;99588.34;4152043;28;20030;-77
2023/01/18 04:46:27;;;;;;;1.50;1.02;;;2.40;99.90;;;1.51;100.00;99570.06;4155140;28;20030;-77
2023/01/18 04:48:28;;;;;;;1.65;0.98;;;2.60;99.90;;;1.60;100.00;99581.47;4152933;28;20057;-77
2023/01/18 04:50:29;;;;;;;3.83;0.90;;;2.70;99.90;;;1.56;100.00;99591.28;4134244;28;20031;-78
2023/01/18 04:52:32;;;;;;;2.50;1.42;;;2.70;99.90;;;1.61;100.00;99583.13;4150789;28;20081;-77
2023/01/18 04:54:33;;;;;;;2.67;0.90;;;2.80;99.90;;;1.62;100.00;99589.94;4150585;28;20073;-77
2023/01/18 04:56:34;;;;;;;2.78;0.85;;;2.80;99.90;;;1.52;100.00;99592.47;4153567;28;20105;-77
2023/01/18 04:58:35;;;;;;;2.83;0.68;;;2.80;99.90;;;1.52;100.00;99602.88;4150668;28;20041;-77
2023/01/18 05:00:38;;;;;;;2.83;1.10;;;2.70;99.90;;;1.52;100.00;99604.66;4150551;28;20030;-77
2023/01/18 05:02:39;;;;;;;1.70;0.60;;;2.70;99.90;;;1.35;100.00;99607.81;4134656;28;20019;-77
2023/01/18 05:04:40;;;;;;;3.25;0.77;;;2.60;99.90;;;1.32;100.00;99608.88;4148106;28;20406;-78
2023/01/18 05:06:42;;;;;;;2.47;0.70;;;2.60;99.90;;;1.21;100.00;99608.09;4145796;28;20076;-77
2023/01/18 05:08:43;;;;;;;1.90;1.17;;;2.50;99.90;;;1.25;100.00;99607.75;4153555;28;20040;-77
2023/01/18 05:10:44;;;;;;;2.63;1.00;;;2.50;99.90;;;1.19;100.00;99603.06;4154688;28;20026;-77
2023/01/18 05:12:45;;;;;;;1.52;0.70;;;2.40;99.90;;;1.08;100.00;99600.47;4153393;28;20065;-77
2023/01/18 05:14:46;;;;;;;1.77;0.68;;;2.40;99.90;;;1.14;100.00;99612.97;4153626;28;20053;-77
2023/01/18 05:16:47;;;;;;;1.75;0.70;;;2.40;99.90;;;1.07;100.00;99607.47;4158806;28;20026;-78
2023/01/18 05:18:48;;;;;;;2.63;1.08;;;2.30;99.90;;;1.09;100.00;99610.75;4158720;28;20429;-78
2023/01/18 05:20:50;;;;;;;2.90;1.77;;;2.30;99.90;;;0.98;100.00;99599.59;4153041;28;20061;-77
2023/01/18 05:22:51;;;;;;;4.78;1.10;;;2.30;99.90;;;1.05;100.00;99600.72;4153427;28;20081;-77
2023/01/18 05:24:52;;;;;;;2.08;1.02;;;2.30;99.90;;;1.02;100.00;99612.19;4144808;28;20018;-77
2023/01/18 05:26:53;;;;;;;1.80;0.60;;;2.20;99.90;;;0.93;100.00;99614.69;4166079;28;20109;-77
2023/01/18 05:28:57;;;;;;;1.92;0.90;;;2.20;99.90;;;0.91;100.00;99620.00;4155205;28;20034;-77
2023/01/18 05:30:58;;;;;;;2.25;1.08;;;2.10;99.90;;;0.96;100.00;99619.63;4136574;28;20085;-78
2023/01/18 05:33:01;;;;;;;1.35;0.70;;;2.10;99.90;;;0.89;100.00;99619.31;4154395;28;20409;-77
2023/01/18 05:35:05;;;;;;;2.47;1.60;;;2.10;99.90;;;0.86;100.00;99614.38;4153379;28;20030;-78
2023/01/18 05:37:06;;;;;;;;;;;2.10;99.90;;;0.86;100.00;99627.34;4153243;28;20026;-78
2023/01/18 05:39:08;;;;;;;1.55;0.80;;;2.10;99.90;;;0.87;100.00;99644.56;4153110;28;19909;-77
2023/01/18 05:41:09;;;;;;;2.58;0.80;;;2.10;99.90;;;0.87;100.00;99634.19;4154165;28;20025;-77
2023/01/18 05:43:11;;;;;;;3.00;0.88;;;2.10;99.90;;;0.89;100.00;99629.72;4154327;28;20111;-77
2023/01/18 05:45:12;;;;;;;3.97;0.80;;;2.10;99.90;;;0.96;100.00;99638.63;4152493;28;20025;-77
2023/01/18 05:47:13;;;;;;;1.85;0.70;;;2.10;99.90;;;0.97;100.00;99629.09;4158178;28;20030;-77
2023/01/18 05:49:14;;;;;;;2.63;0.88;;;2.10;99.90;;;0.94;100.00;99640.53;4154337;28;20026;-77
2023/01/18 05:51:15;;;;;;;3.47;1.10;;;2.10;99.90;;;0.93;100.00;99645.84;4152815;28;20030;-77
2023/01/18 05:53:20;;;;;;;1.80;0.70;;;2.10;99.90;;;0.95;100.00;99657.78;4153740;28;20026;-77
2023/01/18 05:55:21;;;;;;;1.17;0.80;;;2.10;99.90;;;0.92;100.00;99658.03;4153134;28;20064;-77
2023/01/18 05:57:22;;;;;;;3.35;1.08;;;2.10;99.90;;;0.88;100.00;99663.56;4155449;28;20030;-77
2023/01/18 05:59:23;;;;;;;1.98;0.90;;;2.10;99.90;;;0.97;100.00;99668.03;4153968;28;20111;-77
2023/01/18 06:01:24;;;;;;;2.25;0.73;;;2.10;99.90;;;0.89;100.00;99663.47;4153840;28;20076;-78
2023/01/18 06:03:24;;;;;;;3.25;1.15;;;2.10;99.90;;;0.94;100.00;99669.09;4155175;28;20080;-77
2023/01/18 06:05:26;;;;;;;2.40;1.02;;;2.10;99.90;;;0.96;100.00;99675.00;4152664;28;20018;-77
2023/01/18 06:07:27;;;;;;;2.22;1.10;;;2.10;99.90;;;1.02;100.00;99691.84;4146528;28;20044;-78
2023/01/18 06:09:29;;;;;;;3.83;1.15;;;2.20;99.90;;;0.96;100.00;99681.94;4155582;28;20054;-77
2023/01/18 06:11:30;;;;;;;3.40;1.10;;;2.20;99.90;;;1.07;100.00;99693.16;4152758;28;20033;-78
2023/01/18 06:13:31;;;;;;;2.35;1.10;;;2.20;99.90;;;1.09;100.00;99695.63;4152536;28;20038;-77
2023/01/18 06:15:32;;;;;;;2.05;1.40;;;2.20;99.90;;;1.02;100.00;99687.47;4152520;28;20030;-78
2023/01/18 06:17:35;;;;;;;2.80;1.52;;;2.20;99.90;;;1.06;100.00;99694.09;4162124;28;20065;-77
2023/01/18 06:19:35;;;;;;;2.35;1.30;;;2.20;99.90;;;1.06;100.00;99698.47;4152551;28;20049;-78
2023/01/18 06:21:36;;;;;;;3.20;1.40;;;2.20;99.90;;;1.13;100.00;99701.41;4153395;28;20038;-77
2023/01/18 06:23:37;;;;;;;2.88;1.42;;;2.20;99.90;;;1.13;100.00;99708.22;4153513;28;20022;-77
2023/01/18 06:25:38;;;;;;;3.72;1.50;;;2.30;99.90;;;1.20;100.00;99716.38;4167353;28;20032;-77
2023/01/18 06:27:39;;;;;;;4.22;1.30;;;2.30;99.90;;;1.19;100.00;99713.91;4161084;28;20065;-78
2023/01/18 06:29:40;;;;;;;2.00;1.40;;;2.30;99.90;;;1.19;100.00;99719.94;4152307;28;20441;-77
2023/01/18 06:31:41;;;;;;;4.07;1.50;;;2.30;99.90;;;1.21;100.00;99722.38;4152311;28;20041;-77
2023/01/18 06:33:42;;;;;;;2.30;1.10;;;2.40;99.90;;;1.25;100.00;99726.41;4153516;28;20034;-77
2023/01/18 06:35:43;;;;;;;2.38;1.52;;;2.40;99.90;;;1.25;100.00;99713.41;4153386;28;20034;-78
2023/01/18 06:37:45;;;;;;;2.40;1.20;;;2.40;99.90;;;1.32;100.00;99730.16;4158259;28;20549;-77
2023/01/18 06:39:46;;;;;;;2.42;1.33;;;2.40;99.90;;;1.33;100.00;99731.81;4152163;28;20569;-77
2023/01/18 06:41:47;;;;;;;3.40;2.20;;;2.40;99.90;;;1.29;100.00;99732.97;4153224;28;20038;-78
2023/01/18 06:43:49;;;;;;;5.40;2.10;;;2.40;99.90;;;1.24;100.00;99727.34;4152226;28;20375;-78
2023/01/18 06:45:55;;;;;;;4.43;1.95;;;2.50;99.90;;;1.29;100.00;99735.59;4151901;28;20034;-77
2023/01/18 06:47:56;;;;;;;3.28;2.00;;;2.50;99.90;;;1.29;100.00;99736.41;4154692;28;20022;-77
2023/01/18 06:49:57;;;;;;;3.15;1.60;;;2.50;99.90;;;1.27;100.00;99740.09;4151862;28;20022;-77
2023/01/18 06:51:58;;;;;;;2.88;1.85;;;2.50;99.90;;;1.25;100.00;99732.44;4152019;28;20037;-77
2023/01/18 06:53:59;;;;;;;3.08;1.85;;;2.50;99.90;;;1.24;100.00;99746.34;4151842;28;20022;-78
2023/01/18 06:56:03;;;;;;;2.40;1.40;;;2.50;99.90;;;1.30;100.00;99742.44;4154938;28;20068;-77
2023/01/18 06:58:04;;;;;;;4.95;1.67;;;2.50;99.90;;;1.26;100.00;99748.81;4154243;28;20034;-78
2023/01/18 07:00:07;;;;;;;5.40;1.27;;;2.50;99.90;;;1.24;100.00;99748.13;4153088;28;20378;-78
2023/01/18 07:02:13;;;;;;;3.55;1.50;;;2.50;99.90;;;1.20;100.00;99752.72;4151761;28;20025;-78
2023/01/18 07:04:13;;;;;;;3.00;1.63;;;2.50;99.90;;;1.23;100.00;99746.47;4151750;28;20040;-78
2023/01/18 07:06:14;;;;;;;2.58;1.33;;;2.40;99.90;;;1.18;100.00;99748.59;4139097;28;20018;-78
2023/01/18 07:08:15;;;;;;;2.00;1.00;;;2.40;99.90;;;1.20;100.00;99739.75;4135256;28;20038;-78
2023/01/18 07:10:16;;;;;;;2.80;1.00;;;2.40;99.90;;;1.25;100.00;99749.78;4151825;28;20576;-78
2023/01/18 07:12:17;;;;;;;1.83;1.05;;;2.40;99.90;;;1.18;100.00;99751.19;4152844;28;20033;-78
2023/01/18 07:14:18;;;;;;;1.90;1.35;;;2.40;99.90;;;1.25;100.00;99760.19;4151565;28;20045;-78
2023/01/18 07:16:20;;;;;;;3.08;1.25;;;2.40;99.90;;;1.28;100.00;99762.53;4151565;28;20026;-77
2023/01/18 07:18:21;;;;;;;3.35;1.50;;;2.40;99.90;;;1.25;100.00;99763.59;4152837;28;20042;-78
2023/01/18 07:20:22;;;;;;;2.80;1.48;;;2.40;99.90;;;1.29;100.00;99766.75;4152606;28;20050;-78
2023/01/18 07:22:23;;;;;;;3.15;1.42;;;2.40;99.90;;;1.32;100.00;99769.13;4152574;28;20103;-78
2023/01/18 07:24:24;;;;;;;3.15;1.40;;;2.40;99.90;;;1.32;100.00;99769.94;4157123;28;20071;-78
2023/01/18 07:26:25;;;;;;;3.42;1.40;;;2.50;99.90;;;1.33;100.00;99770.78;4168026;28;20052;-78
2023/01/18 07:28:27;;;;;;;2.95;1.90;;;2.50;99.90;;;1.31;100.00;99770.06;4156694;28;20137;-77
2023/01/18 07:30:28;;;;;;;3.58;1.35;;;2.50;99.90;;;1.28;100.00;99763.34;4134959;28;20064;-78
2023/01/18 07:32:29;;;;;;;2.30;1.40;;;2.50;99.90;;;1.27;100.00;99763.47;4151543;28;20081;-78
2023/01/18 07:34:30;;;;;;;2.60;1.27;;;2.50;99.90;;;1.27;100.00;99769.50;4151517;28;20033;-78
2023/01/18 07:36:31;;;;;;;3.50;1.65;;;2.50;99.90;;;1.25;100.00;99768.78;4141601;28;20524;-78
2023/01/18 07:38:32;;;;;;;2.22;1.30;;;2.50;99.90;;;1.22;100.00;99769.03;4137333;28;20030;-78
2023/01/18 07:40:33;;;;;;;8.80;2.03;;;2.40;99.90;;;1.23;100.00;99769.84;4151085;28;20026;-78
2023/01/18 07:42:34;;;;;;;3.30;1.50;;;2.40;99.90;;;1.13;100.00;99754.97;4152529;28;20397;-78
2023/01/18 07:44:36;;;;;;;1.85;1.00;;;2.40;99.90;;;1.17;100.00;99765.97;4151334;28;20033;-78
2023/01/18 07:46:37;;;;;;;2.30;1.90;;;2.40;99.90;;;1.19;100.00;99784.88;4151333;28;20112;-78
2023/01/18 07:48:38;;;;;;;3.20;1.60;;;2.40;99.90;;;1.13;100.00;99784.50;4152462;28;20017;-78
2023/01/18 07:50:39;;;;;;;2.35;1.30;;;2.40;99.90;;;1.13;100.00;99794.91;4151421;28;20045;-78
2023/01/18 07:52:40;;;;;;;1.67;1.27;;;2.30;99.90;;;1.10;100.00;99795.97;4134928;28;20033;-78
2023/01/18 07:54:41;;;;;;;3.05;1.27;;;2.30;99.90;;;1.04;100.00;99794.69;4150524;28;20065;-78
2023/01/18 07:56:42;;;;;;;2.17;1.73;;;2.30;99.90;;;1.06;100.00;99794.53;4156061;28;20030;-78
2023/01/18 07:58:43;;;;;;;3.08;1.70;;;2.30;99.90;;;1.08;100.00;99803.03;4151478;28;20190;-78
2023/01/18 08:00:45;;;;;;;3.40;1.83;;;2.20;99.90;;;1.02;100.00;99798.31;4153168;28;20022;-78
2023/01/18 08:02:50;;;;;;;4.47;1.70;;;2.20;99.90;;;1.00;100.00;99802.81;4152471;28;20493;-78
2023/01/18 08:04:51;;;;;;;4.65;2.33;;;2.20;99.90;;;1.03;100.00;99799.97;4151200;28;20030;-78
2023/01/18 08:06:52;;;;;;;7.35;3.42;;;2.20;99.90;;;1.04;100.00;99812.03;4151803;28;20117;-78
2023/01/18 08:08:56;;;;;;;5.22;2.47;;;2.20;99.90;;;1.05;100.00;99803.25;4152267;28;20204;-78
2023/01/18 08:11:00;;;;;;;4.50;2.38;;;2.20;99.90;;;1.10;100.00;99801.16;4150958;28;20029;-78
2023/01/18 08:13:01;;;;;;;5.55;3.22;;;2.20;99.90;;;1.06;100.00;99805.75;4152390;28;20085;-78
2023/01/18 08:15:03;;;;;;;4.75;3.65;;;2.30;99.90;;;1.11;100.00;99803.63;4151051;28;20060;-78
2023/01/18 08:17:05;;;;;;;7.05;4.25;;;2.30;99.90;;;1.13;100.00;99812.09;4134831;28;20513;-77
2023/01/18 08:19:06;;;;;;;5.07;3.17;;;2.30;99.90;;;1.15;100.00;99804.22;4150978;28;20509;-78
2023/01/18 08:21:11;;;;;;;4.93;3.38;;;2.30;99.90;;;1.22;100.00;99812.38;4150941;28;20077;-78
2023/01/18 08:23:12;;;;;;;5.43;4.20;;;2.30;99.90;;;1.25;100.00;99819.91;4134549;28;20092;-78
2023/01/18 08:25:13;;;;;;;7.40;4.28;;;2.40;99.90;;;1.17;100.00;99812.72;4153058;28;20497;-78
2023/01/18 08:27:15;;;;;;;5.18;3.63;;;2.40;99.90;;;1.22;100.00;99817.56;4162730;28;20166;-78
2023/01/18 08:29:16;;;;;;;4.70;2.88;;;2.40;99.90;;;1.19;100.00;99820.41;4139139;28;20113;-77
2023/01/18 08:31:19;;;;;;;4.68;3.05;;;2.40;99.90;;;1.22;100.00;99826.19;4134845;28;20034;-78
2023/01/18 08:33:21;;;;;;;3.85;2.65;;;2.30;99.90;;;1.15;100.00;99817.19;4150987;28;20579;-78
2023/01/18 08:35:24;;;;;;;3.33;2.30;;;2.30;99.90;;;1.11;100.00;99808.81;4150754;28;20033;-78
2023/01/18 08:37:26;;;;;;;2.95;2.00;;;2.30;99.90;;;1.07;100.00;99807.44;4150816;28;20030;-77
2023/01/18 08:39:27;;;;;;;3.70;2.38;;;2.30;99.90;;;1.13;100.00;99819.91;4151496;28;20026;-77
2023/01/18 08:41:29;;;;;;;4.95;2.92;;;2.30;99.90;;;1.13;100.00;99832.88;4154223;28;20121;-78
2023/01/18 08:43:30;;;;;;;5.13;3.05;;;2.30;99.90;;;1.13;100.00;99853.66;4153741;28;20022;-77
2023/01/18 08:45:33;;;;;;;3.92;2.70;;;2.20;99.90;;;1.01;100.00;99861.59;4155197;28;20026;-77
2023/01/18 08:47:34;;;;;;;3.42;2.28;;;2.20;99.90;;;1.06;100.00;99875.88;4160748;28;20030;-77
2023/01/18 08:49:35;;;;;;;3.45;2.47;;;2.20;99.90;;;1.04;100.00;99876.94;4153866;28;20034;-78
2023/01/18 08:51:36;;;;;;;7.03;2.78;;;2.20;99.90;;;0.90;100.00;99870.19;4153698;28;20509;-78
2023/01/18 08:53:37;;;;;;;2.78;1.92;;;2.10;99.90;;;0.89;100.00;99876.34;4153710;28;20505;-77
2023/01/18 08:55:39;;;;;;;3.55;1.92;;;2.10;99.90;;;0.86;100.00;99875.72;4155128;28;20037;-77
2023/01/18 08:57:40;;;;;;;4.63;2.40;;;2.00;99.90;;;0.87;100.00;99878.19;4159223;28;20030;-78
2023/01/18 08:59:41;;;;;;;3.88;2.30;;;2.00;99.90;;;0.83;100.00;99881.16;4154672;28;20026;-78
2023/01/18 09:01:41;;;;;;;3.20;2.10;;;2.00;99.90;;;0.72;100.00;99879.34;4154907;28;20057;-78
2023/01/18 09:03:43;;;;;;;3.58;2.17;;;1.90;99.90;;;0.69;100.00;99878.78;4153729;28;20025;-77
2023/01/18 09:05:44;;;;;;;4.65;2.60;;;1.90;99.90;;;0.68;100.00;99877.13;4154817;28;20030;-78
2023/01/18 09:07:46;;;;;;;3.45;2.33;;;1.90;99.90;;;0.62;100.00;99883.59;4156164;28;20033;-78
2023/01/18 09:09:47;;;;;;;4.55;2.78;;;1.80;99.90;;;0.63;100.00;99890.41;4153475;28;20026;-78
2023/01/18 09:11:51;;;;;;;6.88;3.28;;;1.80;99.90;;;0.60;100.00;99877.66;4153533;28;20030;-77
2023/01/18 09:13:54;;;;;;;3.33;2.42;;;1.80;99.90;;;0.66;100.00;99879.00;4153375;28;20056;-78
2023/01/18 09:16:08;;;;;;;3.20;2.13;;;1.80;99.90;;;0.66;100.00;99884.19;4153559;28;20026;-77
2023/01/18 09:18:09;;;;;;;3.20;1.90;;;1.80;99.90;;;0.67;100.00;99886.66;4164308;28;20081;-78
2023/01/18 09:20:11;;;;;;;3.53;1.75;;;1.80;99.90;;;0.70;100.00;99886.44;4153469;28;20122;-77
2023/01/18 09:22:12;;;;;;;2.78;1.63;;;1.90;99.90;;;0.80;100.00;99882.22;4154638;28;20034;-77
2023/01/18 09:24:13;;;;;;;4.28;2.20;;;1.90;99.90;;;0.90;100.00;99884.91;4153939;28;20020;-77
2023/01/18 09:26:16;;;;;;;6.25;1.80;;;2.00;99.90;;;0.95;100.00;99894.03;4157225;28;20512;-78
2023/01/18 09:28:17;;;;;;;2.97;2.42;;;2.10;99.90;;;1.01;100.00;99916.13;4160548;28;20030;-77
2023/01/18 09:30:17;;;;;;;3.25;2.35;;;2.20;99.90;;;1.10;100.00;99915.44;4153242;28;20026;-78
2023/01/18 09:32:20;;;;;;;3.15;2.08;;;2.30;99.90;;;1.20;100.00;99895.59;4153086;28;20026;-77
2023/01/18 09:34:21;;;;;;;3.88;2.47;;;2.40;99.90;;;1.45;100.00;99904.91;4153298;28;20127;-77
2023/01/18 09:36:25;;;;;;;3.95;2.40;;;2.50;99.90;;;1.66;100.00;99924.06;4156649;28;20045;-78